Nathrop, Colorado
Current Conditions -  °F | °C
As of 1:55 AM on Friday 31 Oct 2014 (Local Time) from KAEJ Reporting Station
Clear Clear  
Wind Chill: 21°   Ceiling: Unl
Heat Index: 27°   Visibility: 10mi
Dew Point: 19°   Wind: 5mph
Humidity: 74%   Direction: 290°WNW
Pressure: 30.47"   Gusts: NA
Location:  38.75°N, 106.08°W
Report Text: KAEJ 310755Z AUTO 29004KT 10SM CLR M03/M07 A3047 RMK AO2 T10301070
Loading
Personal Weather Stations






























Interactive Weather Map New forecast layout! Learn more

10-Day Weather Forecast

Advertisements
Track Severe Weather on mobile